CheckWX is a tool to help pilots better visualize weather data.  It is not intended as a substitute for an official pre-flight weather briefing.

15:31:15 UTC

KABE TAF
Lehigh Valley International Airport
Allentown, Pennsylvania, USA
KABE 171133Z 1712/1812 27016G27KT P6SM BKN040 FM171500 27020G38KT P6SM BKN040 FM172300 28015G29KT P6SM BKN040 FM180100 28013G22KT P6SM BKN035 FM180300 29012KT P6SM BKN035 FM181100 30009KT P6SM SCT050 AMD NOT SKED

Oct-17@
12:00 UTC

Oct-17 @ 12:00 UTC

Oct-17@
15:00 UTC

Oct-17 @ 15:00 UTC

KABE 171133Z 1712/1812 27016G27KT P6SM BKN040

Expired

Wind
  • 270° at 16 KTS
  • {Gusting to 27 KTS
Cloud Levels
  • Broken at 4,000' AGL

Oct-17@
15:00 UTC

Oct-17 @ 15:00 UTC

Oct-17@
23:00 UTC

Oct-17 @ 23:00 UTC

FM171500 27020G38KT P6SM BKN040

From

From Standard forecast or significant change

Wind
  • 270° at 20 KTS
  • {Gusting to 38 KTS
Cloud Levels
  • Broken at 4,000' AGL

Oct-17@
23:00 UTC

Oct-17 @ 23:00 UTC

Oct-18@
01:00 UTC

Oct-18 @ 01:00 UTC

FM172300 28015G29KT P6SM BKN040

From

From Standard forecast or significant change

Wind
  • 280° at 15 KTS
  • {Gusting to 29 KTS
Cloud Levels
  • Broken at 4,000' AGL

Oct-18@
01:00 UTC

Oct-18 @ 01:00 UTC

Oct-18@
03:00 UTC

Oct-18 @ 03:00 UTC

FM180100 28013G22KT P6SM BKN035

From

From Standard forecast or significant change

Wind
  • 280° at 13 KTS
  • {Gusting to 22 KTS
Cloud Levels
  • Broken at 3,500' AGL

Oct-18@
03:00 UTC

Oct-18 @ 03:00 UTC

Oct-18@
11:00 UTC

Oct-18 @ 11:00 UTC

FM180300 29012KT P6SM BKN035

From

From Standard forecast or significant change

Wind
  • 290° at 12 KTS
Cloud Levels
  • Broken at 3,500' AGL

Oct-18@
11:00 UTC

Oct-18 @ 11:00 UTC

Oct-18@
12:00 UTC

Oct-18 @ 12:00 UTC

FM181100 30009KT P6SM SCT050 AMD NOT SKED

From

From Standard forecast or significant change

Wind
  • 300° at 9 KTS
Cloud Levels
  • Scattered at 5,000' AGL